Time;durP1;ratioP1;P1;durP2;ratioP2;P2;SDS_P1;SDS_P2;PMS_P1;PMS_P2;Temp;Humidity;BMP_temperature;BMP_pressure;BME280_temperature;BME280_humidity;BME280_pressure;Samples;Min_cycle;Max_cycle;Signal;HPM_P1;HPM_P2
2022/09/15 00:01:19;;;;;;;5.23;3.97;;;14.20;99.90;;;;;;4993056;28;20617;-73
2022/09/15 00:03:44;;;;;;;6.80;5.27;;;14.20;99.90;;;;;;4975844;28;20627;-73
2022/09/15 00:06:10;;;;;;;5.23;4.30;;;14.10;99.90;;;;;;4975352;28;20213;-74
2022/09/15 00:08:37;;;;;;;8.30;5.03;;;14.10;99.90;;;;;;4993235;28;20536;-73
2022/09/15 00:11:14;;;;;;;8.83;6.13;;;14.10;99.90;;;;;;4993318;28;20404;-73
2022/09/15 00:13:40;;;;;;;8.97;5.43;;;14.00;99.90;;;;;;4993317;28;20403;-73
2022/09/15 00:16:06;;;;;;;6.90;4.83;;;14.00;99.90;;;;;;4993525;28;20424;-73
2022/09/15 00:18:33;;;;;;;9.57;4.17;;;13.90;99.90;;;;;;4998277;28;20411;-73
2022/09/15 00:21:03;;;;;;;7.03;4.73;;;14.00;99.90;;;;;;4999713;28;20818;-73
2022/09/15 00:23:28;;;;;;;7.57;4.17;;;13.90;99.90;;;;;;4992956;28;20914;-73
2022/09/15 00:25:54;;;;;;;6.40;3.50;;;13.90;99.90;;;;;;4992650;28;20460;-73
2022/09/15 00:28:21;;;;;;;3.77;2.90;;;13.90;99.90;;;;;;4975446;28;20168;-73
2022/09/15 00:30:49;;;;;;;4.37;3.73;;;13.90;99.90;;;;;;4992958;28;20168;-73
2022/09/15 00:33:16;;;;;;;5.37;3.33;;;14.00;99.90;;;;;;4975233;28;20779;-73
2022/09/15 00:35:43;;;;;;;7.17;4.00;;;14.00;99.90;;;;;;4992726;28;20432;-73
2022/09/15 00:38:11;;;;;;;6.43;3.80;;;14.00;99.90;;;;;;4993402;28;20499;-73
2022/09/15 00:40:48;;;;;;;6.30;3.30;;;13.90;99.90;;;;;;4993170;28;20409;-74
2022/09/15 00:43:15;;;;;;;4.47;2.80;;;13.90;99.90;;;;;;4993255;28;20416;-73
2022/09/15 00:45:41;;;;;;;5.73;3.60;;;13.90;99.90;;;;;;4992528;28;20470;-73
2022/09/15 00:48:15;;;;;;;5.20;3.90;;;13.80;99.90;;;;;;4992693;28;20890;-73
2022/09/15 00:50:44;;;;;;;6.20;4.10;;;13.90;99.90;;;;;;4992782;28;20220;-73
2022/09/15 00:53:11;;;;;;;30.10;7.00;;;13.80;99.90;;;;;;4992719;28;20412;-73
2022/09/15 00:55:41;;;;;;;7.27;4.67;;;13.70;99.90;;;;;;4992326;28;20516;-73
2022/09/15 00:58:21;;;;;;;7.27;4.93;;;13.70;99.90;;;;;;4992642;28;20462;-73
2022/09/15 01:00:56;;;;;;;5.27;4.30;;;13.60;99.90;;;;;;4992572;28;20420;-74
2022/09/15 01:03:24;;;;;;;7.63;5.20;;;13.60;99.90;;;;;;4992624;28;20427;-73
2022/09/15 01:05:59;;;;;;;6.40;4.43;;;13.70;99.90;;;;;;4992102;28;20537;-74
2022/09/15 01:08:38;;;;;;;8.57;6.00;;;13.60;99.90;;;;;;4992665;28;20682;-74
2022/09/15 01:11:04;;;;;;;9.07;5.07;;;13.60;99.90;;;;;;4992468;28;20458;-73
2022/09/15 01:13:29;;;;;;;8.37;5.57;;;13.50;99.90;;;;;;4993695;28;20527;-73
2022/09/15 01:16:12;;;;;;;8.10;5.33;;;13.50;99.90;;;;;;4996129;28;20297;-73
2022/09/15 01:18:52;;;;;;;6.60;4.67;;;13.40;99.90;;;;;;4996644;28;20169;-73
2022/09/15 01:21:31;;;;;;;5.00;4.13;;;13.30;99.90;;;;;;4996710;28;20403;-73
2022/09/15 01:24:27;;;;;;;4.20;3.77;;;13.30;99.90;;;;;;4996624;28;20499;-73
2022/09/15 01:26:52;;;;;;;6.50;5.77;;;13.30;99.90;;;;;;4996414;28;20973;-73
2022/09/15 01:29:34;;;;;;;6.27;5.17;;;13.30;99.90;;;;;;4996448;28;20407;-74
2022/09/15 01:35:26;;;;;;;10.07;5.17;;;13.20;99.90;;;;;;4996148;28;20399;-74
2022/09/15 01:38:21;;;;;;;13.17;5.67;;;13.20;99.90;;;;;;4996175;28;20519;-73
2022/09/15 01:41:26;;;;;;;8.63;4.30;;;13.10;99.90;;;;;;4996165;28;20408;-73
2022/09/15 01:43:57;;;;;;;7.33;4.70;;;13.20;99.90;;;;;;4991340;28;20419;-75
2022/09/15 01:46:26;;;;;;;10.80;4.67;;;13.10;99.90;;;;;;4995384;28;20460;-73
2022/09/15 01:48:54;;;;;;;4.87;4.30;;;13.10;99.90;;;;;;4995863;28;20463;-73
2022/09/15 01:51:22;;;;;;;8.03;4.40;;;13.10;99.90;;;;;;4994505;28;20905;-73
2022/09/15 01:53:49;;;;;;;5.80;3.53;;;13.10;99.90;;;;;;4995689;28;20910;-72
2022/09/15 01:56:14;;;;;;;5.10;3.87;;;13.10;99.90;;;;;;4995817;28;20930;-73
2022/09/15 01:58:40;;;;;;;6.60;3.73;;;13.10;99.90;;;;;;4995869;28;20427;-73
2022/09/15 02:01:10;;;;;;;6.00;4.20;;;13.00;99.90;;;;;;4995755;28;20201;-73
2022/09/15 02:03:49;;;;;;;10.07;3.50;;;13.10;99.90;;;;;;5000106;28;20495;-72
2022/09/15 02:06:23;;;;;;;5.73;3.67;;;13.20;99.90;;;;;;5004798;28;20530;-73
2022/09/15 02:09:00;;;;;;;4.13;3.63;;;13.20;99.90;;;;;;4996592;28;20403;-74
2022/09/15 02:11:27;;;;;;;6.17;3.20;;;13.20;99.90;;;;;;4995411;28;20499;-76
2022/09/15 02:14:09;;;;;;;6.43;4.37;;;13.20;99.90;;;;;;4995282;28;20419;-74
2022/09/15 02:16:36;;;;;;;5.90;3.90;;;13.20;99.90;;;;;;4995362;28;21007;-74
2022/09/15 02:19:14;;;;;;;8.37;4.47;;;13.10;99.90;;;;;;4995029;28;20479;-74
2022/09/15 02:22:09;;;;;;;9.53;4.47;;;13.10;99.90;;;;;;4995156;28;20400;-74
2022/09/15 02:24:39;;;;;;;6.53;4.20;;;13.00;99.90;;;;;;4994591;28;20409;-74
2022/09/15 02:27:10;;;;;;;6.63;5.53;;;13.20;99.90;;;;;;4994818;28;20426;-74
2022/09/15 02:29:36;;;;;;;6.90;4.27;;;13.20;99.90;;;;;;4995316;28;20432;-74
2022/09/15 02:32:05;;;;;;;6.53;4.50;;;13.10;99.90;;;;;;4994927;28;20401;-74
2022/09/15 02:34:34;;;;;;;7.80;5.17;;;13.10;99.90;;;;;;4994821;28;20403;-74
2022/09/15 02:37:00;;;;;;;6.97;5.23;;;13.10;99.90;;;;;;4995009;28;20838;-74
2022/09/15 02:39:34;;;;;;;9.07;4.60;;;13.00;99.90;;;;;;4994841;28;20403;-74
2022/09/15 02:42:01;;;;;;;5.40;4.23;;;13.10;99.90;;;;;;4995144;28;20458;-73
2022/09/15 02:44:29;;;;;;;6.90;4.57;;;13.00;99.90;;;;;;4994768;28;20528;-74
2022/09/15 02:46:56;;;;;;;4.93;3.50;;;13.00;99.90;;;;;;4994895;28;20420;-73
2022/09/15 02:49:22;;;;;;;6.73;4.10;;;12.90;99.90;;;;;;4995145;28;20407;-73
2022/09/15 02:51:47;;;;;;;4.77;3.70;;;12.80;99.90;;;;;;4994735;28;20404;-73
2022/09/15 02:54:13;;;;;;;6.00;4.43;;;12.80;99.90;;;;;;4994532;28;20252;-73
2022/09/15 02:56:38;;;;;;;4.00;3.60;;;12.80;99.90;;;;;;4994674;28;20205;-73
2022/09/15 02:59:04;;;;;;;6.00;3.10;;;12.90;99.90;;;;;;4994565;28;20251;-73
2022/09/15 03:01:31;;;;;;;5.07;3.30;;;12.90;99.90;;;;;;4994763;28;20657;-73
2022/09/15 03:03:57;;;;;;;4.37;3.97;;;12.90;99.90;;;;;;4994362;28;20315;-73
2022/09/15 03:06:23;;;;;;;8.00;4.50;;;12.90;99.90;;;;;;4993981;28;20833;-73
2022/09/15 03:08:51;;;;;;;6.67;3.93;;;12.90;99.90;;;;;;4994285;28;20408;-73
2022/09/15 03:11:19;;;;;;;4.50;4.07;;;12.90;99.90;;;;;;4994358;28;20404;-72
2022/09/15 03:13:45;;;;;;;8.63;4.67;;;12.90;99.90;;;;;;4977212;28;20749;-73
2022/09/15 03:16:12;;;;;;;7.20;5.00;;;12.70;99.90;;;;;;4994191;28;20908;-73
2022/09/15 03:18:39;;;;;;;6.20;4.90;;;12.70;99.90;;;;;;4994028;28;20408;-73
2022/09/15 03:21:07;;;;;;;6.63;5.07;;;12.60;99.90;;;;;;4993647;28;20421;-73
2022/09/15 03:23:33;;;;;;;5.10;4.03;;;12.60;99.90;;;;;;4993947;28;20420;-74
2022/09/15 03:26:00;;;;;;;7.60;4.73;;;12.50;99.90;;;;;;4993577;28;20452;-73
2022/09/15 03:28:26;;;;;;;5.43;4.03;;;12.50;99.90;;;;;;4976762;28;20537;-73
2022/09/15 03:30:53;;;;;;;7.00;5.13;;;12.40;99.90;;;;;;4993881;28;20404;-73
2022/09/15 03:33:20;;;;;;;7.40;4.47;;;12.40;99.90;;;;;;4994487;28;20435;-73
2022/09/15 03:35:46;;;;;;;6.87;4.10;;;12.30;99.90;;;;;;4993124;28;20436;-73
2022/09/15 03:38:12;;;;;;;7.43;4.83;;;12.30;99.90;;;;;;4993892;28;20408;-73
2022/09/15 03:40:38;;;;;;;7.47;4.43;;;12.30;99.90;;;;;;4993696;28;20775;-73
2022/09/15 03:43:03;;;;;;;5.63;4.03;;;12.30;99.90;;;;;;4993731;28;20408;-73
2022/09/15 03:45:29;;;;;;;6.27;3.97;;;12.20;99.90;;;;;;4993557;28;20199;-73
2022/09/15 03:47:55;;;;;;;5.53;4.63;;;12.20;99.90;;;;;;4993832;28;20168;-73
2022/09/15 03:50:20;;;;;;;5.40;4.73;;;12.20;99.90;;;;;;4994305;28;20165;-74
2022/09/15 03:52:46;;;;;;;5.60;3.70;;;12.10;99.90;;;;;;5003755;28;20173;-74
2022/09/15 03:55:11;;;;;;;6.33;4.20;;;12.10;99.90;;;;;;4994556;28;20473;-73
2022/09/15 03:57:37;;;;;;;4.13;3.50;;;12.20;99.90;;;;;;4993615;28;20169;-73
2022/09/15 04:00:06;;;;;;;4.70;4.17;;;12.20;99.90;;;;;;4993339;28;20227;-73
2022/09/15 04:02:31;;;;;;;6.10;4.63;;;12.10;99.90;;;;;;4993403;28;20255;-73
2022/09/15 04:04:57;;;;;;;5.87;3.33;;;12.10;99.90;;;;;;4992854;28;20543;-73
2022/09/15 04:07:22;;;;;;;5.20;3.50;;;12.10;99.90;;;;;;4993050;28;20209;-73
2022/09/15 04:09:48;;;;;;;6.23;4.27;;;12.00;99.90;;;;;;4993220;28;20161;-73
2022/09/15 04:12:13;;;;;;;5.40;4.03;;;12.10;99.90;;;;;;4993250;28;20189;-73
2022/09/15 04:14:39;;;;;;;7.77;4.10;;;12.10;99.90;;;;;;4993044;28;20244;-73
2022/09/15 04:17:05;;;;;;;6.13;4.17;;;12.00;99.90;;;;;;4992878;28;20211;-74
2022/09/15 04:19:30;;;;;;;7.17;4.03;;;12.00;99.90;;;;;;4975611;28;20173;-73
2022/09/15 04:21:55;;;;;;;6.73;4.07;;;12.00;99.90;;;;;;4993251;28;20594;-73
2022/09/15 04:24:21;;;;;;;4.00;3.60;;;12.10;99.90;;;;;;4992847;28;20168;-73
2022/09/15 04:26:47;;;;;;;5.23;3.77;;;12.10;99.90;;;;;;4992801;28;20283;-73
2022/09/15 04:29:15;;;;;;;5.17;4.37;;;12.10;99.90;;;;;;4993009;28;20640;-73
2022/09/15 04:31:42;;;;;;;5.23;4.67;;;12.10;99.90;;;;;;4993303;28;20440;-73
2022/09/15 04:34:09;;;;;;;5.37;3.93;;;12.20;99.90;;;;;;4992763;28;20448;-74
2022/09/15 04:36:34;;;;;;;5.80;3.70;;;12.20;99.90;;;;;;4992948;28;20435;-74
2022/09/15 04:39:00;;;;;;;5.50;3.23;;;12.20;99.90;;;;;;4975420;28;20428;-74
2022/09/15 04:41:26;;;;;;;9.90;3.77;;;12.20;99.90;;;;;;4992851;28;20561;-73
2022/09/15 04:43:52;;;;;;;5.47;3.40;;;12.20;99.90;;;;;;4993307;28;20165;-74
2022/09/15 04:46:18;;;;;;;5.47;4.17;;;12.10;99.90;;;;;;4992597;28;20462;-73
2022/09/15 04:48:45;;;;;;;4.80;2.90;;;12.10;99.90;;;;;;4992999;28;20484;-74
2022/09/15 04:51:16;;;;;;;7.97;3.97;;;12.10;99.90;;;;;;4992860;28;20752;-74
2022/09/15 04:53:43;;;;;;;6.00;3.30;;;12.10;99.90;;;;;;4992637;28;20408;-74
2022/09/15 04:56:14;;;;;;;5.27;3.30;;;12.00;99.90;;;;;;4992709;28;20913;-73
2022/09/15 04:58:43;;;;;;;8.37;3.93;;;12.10;99.90;;;;;;4992715;28;20440;-73
2022/09/15 05:01:17;;;;;;;6.00;3.83;;;12.20;99.90;;;;;;4992981;28;20412;-74
2022/09/15 05:03:43;;;;;;;4.13;3.63;;;12.10;99.90;;;;;;4992947;28;20443;-74
2022/09/15 05:06:11;;;;;;;6.60;4.63;;;12.20;99.90;;;;;;4992352;28;20893;-74
2022/09/15 05:08:37;;;;;;;6.03;4.10;;;12.20;99.90;;;;;;4992740;28;20420;-74
2022/09/15 05:11:08;;;;;;;3.80;3.40;;;12.30;99.90;;;;;;4992748;28;20830;-74
2022/09/15 05:13:35;;;;;;;6.20;3.60;;;12.40;99.90;;;;;;4992475;28;20499;-74
2022/09/15 05:16:19;;;;;;;6.13;3.63;;;12.40;99.90;;;;;;4992547;28;20436;-73
2022/09/15 05:18:46;;;;;;;5.30;3.57;;;12.40;99.90;;;;;;4992536;28;20899;-72
2022/09/15 05:21:13;;;;;;;4.40;3.40;;;12.40;99.90;;;;;;4992295;28;20483;-72
2022/09/15 05:23:39;;;;;;;4.30;3.47;;;12.40;99.90;;;;;;4992557;28;20415;-73
2022/09/15 05:26:07;;;;;;;7.27;5.07;;;12.50;99.90;;;;;;4991923;28;20961;-73
2022/09/15 05:28:35;;;;;;;6.30;3.07;;;12.50;99.90;;;;;;4992752;28;20811;-73
2022/09/15 05:31:05;;;;;;;5.60;3.73;;;12.60;99.90;;;;;;4992526;28;20409;-73
2022/09/15 05:33:31;;;;;;;7.67;4.03;;;12.60;99.90;;;;;;4997337;28;20757;-73
2022/09/15 05:35:59;;;;;;;4.57;3.30;;;12.70;99.90;;;;;;4998305;28;20550;-73
2022/09/15 05:38:28;;;;;;;4.70;3.70;;;12.80;99.90;;;;;;4997108;28;20180;-72
2022/09/15 05:40:53;;;;;;;6.30;4.03;;;13.00;99.90;;;;;;4995123;28;20442;-73
2022/09/15 05:43:19;;;;;;;4.57;3.50;;;13.30;99.90;;;;;;4975257;28;20494;-73
2022/09/15 05:45:53;;;;;;;4.57;3.33;;;13.50;99.90;;;;;;4992259;28;20795;-73
2022/09/15 05:48:18;;;;;;;7.27;3.20;;;13.80;99.90;;;;;;4992342;28;20201;-73
2022/09/15 05:50:49;;;;;;;5.13;2.83;;;14.10;99.90;;;;;;4992363;28;20468;-73
2022/09/15 05:53:14;;;;;;;2.40;2.20;;;14.30;99.90;;;;;;4992251;28;20282;-74
2022/09/15 05:55:40;;;;;;;6.67;2.80;;;14.70;99.90;;;;;;4992245;28;21000;-74
2022/09/15 05:58:05;;;;;;;6.20;3.07;;;14.70;99.90;;;;;;4992965;28;20517;-75
2022/09/15 06:00:32;;;;;;;4.17;3.10;;;14.90;99.90;;;;;;4995201;28;20193;-73
2022/09/15 06:02:58;;;;;;;2.83;2.17;;;14.70;99.90;;;;;;4996047;28;20175;-74
2022/09/15 06:05:23;;;;;;;3.77;2.40;;;14.60;99.90;;;;;;4995432;28;21049;-73
2022/09/15 06:07:52;;;;;;;2.50;2.10;;;15.30;99.90;;;;;;4996041;28;20566;-72
2022/09/15 06:10:18;;;;;;;4.63;2.00;;;15.60;99.90;;;;;;4962632;28;20161;-74
2022/09/15 06:12:43;;;;;;;2.70;2.50;;;15.40;99.90;;;;;;5003838;28;20955;-73
2022/09/15 06:15:09;;;;;;;2.60;2.40;;;15.50;99.90;;;;;;5014902;28;20174;-73
2022/09/15 06:17:35;;;;;;;3.10;1.93;;;15.50;99.90;;;;;;5015125;28;20167;-73
2022/09/15 06:20:00;;;;;;;4.37;2.83;;;15.00;99.90;;;;;;5014817;28;20437;-73
2022/09/15 06:22:27;;;;;;;3.67;2.27;;;15.00;99.90;;;;;;5014663;28;20225;-72
2022/09/15 06:24:52;;;;;;;3.50;1.80;;;14.80;99.90;;;;;;5014528;28;20199;-72
2022/09/15 06:27:19;;;;;;;2.57;2.37;;;14.90;99.90;;;;;;5014950;28;20418;-72
2022/09/15 06:29:44;;;;;;;3.50;2.17;;;14.90;99.90;;;;;;5014629;28;20729;-73
2022/09/15 06:32:10;;;;;;;2.10;1.90;;;15.90;99.90;;;;;;5014727;28;20497;-72
2022/09/15 06:34:35;;;;;;;5.40;2.70;;;16.40;99.90;;;;;;5014492;28;20174;-73
2022/09/15 06:37:01;;;;;;;3.40;2.70;;;16.60;99.90;;;;;;5014181;28;20657;-73
2022/09/15 06:39:27;;;;;;;4.17;2.50;;;16.60;99.90;;;;;;5014854;28;20172;-73
2022/09/15 06:41:52;;;;;;;8.33;2.87;;;16.00;99.90;;;;;;5015101;28;20172;-73
2022/09/15 06:44:18;;;;;;;3.00;2.40;;;15.50;99.90;;;;;;5012553;28;20640;-75
2022/09/15 06:46:44;;;;;;;2.17;1.93;;;15.80;99.90;;;;;;5013965;28;20242;-73
2022/09/15 06:49:10;;;;;;;7.17;3.00;;;16.10;99.90;;;;;;5015991;28;20899;-73
2022/09/15 06:51:36;;;;;;;4.93;2.30;;;16.10;99.90;;;;;;5017123;28;20411;-73
2022/09/15 06:54:02;;;;;;;4.53;2.20;;;16.00;99.90;;;;;;5014971;28;20206;-74
2022/09/15 06:56:28;;;;;;;3.57;2.20;;;15.60;99.90;;;;;;5014507;28;20244;-74
2022/09/15 06:58:57;;;;;;;3.30;2.37;;;15.60;99.90;;;;;;5015234;28;20820;-73
2022/09/15 07:01:28;;;;;;;3.80;2.23;;;15.70;99.90;;;;;;5015516;28;20822;-73
2022/09/15 07:03:55;;;;;;;4.70;2.63;;;16.00;99.90;;;;;;5015456;28;20406;-74
2022/09/15 07:06:21;;;;;;;5.90;3.13;;;15.90;99.90;;;;;;5015089;28;20894;-74
2022/09/15 07:08:48;;;;;;;3.77;2.70;;;15.60;99.90;;;;;;5015602;28;20493;-73
2022/09/15 07:11:15;;;;;;;4.00;2.20;;;16.00;99.90;;;;;;5014151;28;20407;-73
2022/09/15 07:13:41;;;;;;;3.87;2.63;;;16.00;99.90;;;;;;5015580;28;20425;-74
2022/09/15 07:16:10;;;;;;;8.20;2.70;;;16.00;99.90;;;;;;5014923;28;20488;-74
2022/09/15 07:18:36;;;;;;;7.33;2.97;;;16.10;99.90;;;;;;5016470;28;20408;-75
2022/09/15 07:21:05;;;;;;;8.23;3.13;;;16.10;99.90;;;;;;5017638;28;20433;-74
2022/09/15 07:23:32;;;;;;;2.50;2.30;;;16.30;99.90;;;;;;5017961;28;20168;-74
2022/09/15 07:26:07;;;;;;;4.07;2.10;;;16.60;99.90;;;;;;5015653;28;20466;-74
2022/09/15 07:28:33;;;;;;;3.43;2.50;;;16.70;99.90;;;;;;5015065;28;20773;-72
2022/09/15 07:30:59;;;;;;;4.30;2.13;;;16.70;99.90;;;;;;5015015;28;20438;-73
2022/09/15 07:33:25;;;;;;;2.80;2.43;;;16.20;99.90;;;;;;5014386;28;20415;-73
2022/09/15 07:35:50;;;;;;;3.43;2.53;;;16.20;99.90;;;;;;5012799;28;20250;-73
2022/09/15 07:38:16;;;;;;;5.50;3.30;;;16.30;99.90;;;;;;5013628;28;20745;-73
2022/09/15 07:40:41;;;;;;;3.90;2.80;;;16.00;99.90;;;;;;5013398;28;20182;-73
2022/09/15 07:43:07;;;;;;;2.90;2.57;;;16.00;99.90;;;;;;5013434;28;20176;-73
2022/09/15 07:45:34;;;;;;;4.70;2.20;;;16.10;99.90;;;;;;5014755;28;20720;-73
2022/09/15 07:47:59;;;;;;;5.03;3.00;;;16.20;99.90;;;;;;5029702;28;20627;-73
2022/09/15 07:50:25;;;;;;;3.30;2.30;;;16.20;99.90;;;;;;5015487;28;20486;-75
2022/09/15 07:52:53;;;;;;;3.57;2.30;;;16.20;99.90;;;;;;5014421;28;20233;-74
2022/09/15 07:55:19;;;;;;;7.30;2.70;;;16.20;99.90;;;;;;5013191;28;20349;-74
2022/09/15 07:57:44;;;;;;;3.30;2.33;;;16.20;99.90;;;;;;5013360;28;20423;-74
2022/09/15 08:00:10;;;;;;;2.47;2.27;;;16.30;99.90;;;;;;5013365;28;20179;-74
2022/09/15 08:02:36;;;;;;;4.70;2.60;;;16.20;99.90;;;;;;5012900;28;20182;-73
2022/09/15 08:05:01;;;;;;;3.60;1.90;;;15.60;99.90;;;;;;5012776;28;20553;-73
2022/09/15 08:07:27;;;;;;;6.13;2.43;;;15.50;99.90;;;;;;5029197;23;20217;-67
2022/09/15 08:09:52;;;;;;;3.40;2.60;;;16.20;99.90;;;;;;5011858;28;20172;-67
2022/09/15 08:12:18;;;;;;;5.00;3.60;;;16.60;99.90;;;;;;5012448;28;20175;-67
2022/09/15 08:14:43;;;;;;;4.70;2.80;;;17.00;99.90;;;;;;5012320;28;20177;-67
2022/09/15 08:17:09;;;;;;;2.20;1.73;;;17.00;99.90;;;;;;5012319;28;20185;-67
2022/09/15 08:19:34;;;;;;;5.03;1.70;;;16.70;99.90;;;;;;5012766;28;20739;-67
2022/09/15 08:22:01;;;;;;;3.80;1.57;;;16.70;99.90;;;;;;5012372;28;20536;-67
2022/09/15 08:24:27;;;;;;;1.73;1.63;;;16.90;99.90;;;;;;4997376;28;20178;-66
2022/09/15 08:26:53;;;;;;;4.17;1.90;;;17.00;99.90;;;;;;4992540;28;20560;-66
2022/09/15 08:29:19;;;;;;;4.07;1.97;;;17.50;99.90;;;;;;4992932;28;20500;-67
2022/09/15 08:31:45;;;;;;;5.23;2.07;;;17.60;99.90;;;;;;4992808;28;20639;-67
2022/09/15 08:34:13;;;;;;;3.67;1.67;;;17.00;99.90;;;;;;4993046;28;20404;-66
2022/09/15 08:36:39;;;;;;;4.10;2.20;;;16.70;99.90;;;;;;4992921;28;20878;-66
2022/09/15 08:39:05;;;;;;;2.37;2.13;;;16.90;99.90;;;;;;4993178;28;20446;-67
2022/09/15 08:41:47;;;;;;;3.00;2.00;;;17.00;99.90;;;;;;4993072;28;20429;-67
2022/09/15 08:44:15;;;;;;;2.83;2.10;;;17.20;99.90;;;;;;4993423;28;20410;-67
2022/09/15 08:46:59;;;;;;;3.80;2.77;;;17.90;99.90;;;;;;4992780;28;20458;-66
2022/09/15 08:49:33;;;;;;;5.80;3.10;;;18.20;99.90;;;;;;4993158;28;20407;-67
2022/09/15 08:52:03;;;;;;;5.40;2.43;;;17.70;99.90;;;;;;4993177;28;20408;-69
2022/09/15 08:54:31;;;;;;;3.33;1.87;;;18.20;99.90;;;;;;4992876;28;20771;-66
2022/09/15 08:56:59;;;;;;;4.90;2.17;;;18.10;99.90;;;;;;4992244;28;20435;-67
2022/09/15 08:59:31;;;;;;;3.87;2.00;;;17.80;99.90;;;;;;4992958;28;20406;-67
2022/09/15 09:02:12;;;;;;;2.20;1.53;;;16.90;99.90;;;;;;4992772;28;20449;-66
2022/09/15 09:05:14;;;;;;;6.10;1.87;;;17.10;99.90;;;;;;4973071;28;20491;-67
2022/09/15 09:08:04;;;;;;;3.47;1.50;;;17.30;99.90;;;;;;4991255;28;20457;-67
2022/09/15 09:10:33;;;;;;;2.80;1.50;;;17.70;99.90;;;;;;4992593;28;20907;-66
2022/09/15 09:13:13;;;;;;;3.30;1.80;;;17.80;99.90;;;;;;4992401;28;20744;-67
2022/09/15 09:15:45;;;;;;;3.70;1.50;;;17.50;99.90;;;;;;4991794;28;20445;-68
2022/09/15 09:18:25;;;;;;;1.47;1.37;;;17.60;99.90;;;;;;4992227;28;20869;-66
2022/09/15 09:21:10;;;;;;;1.70;1.50;;;17.50;99.90;;;;;;4992473;28;20402;-68
2022/09/15 09:23:47;;;;;;;2.83;2.20;;;17.60;99.90;;;;;;4992279;28;20406;-66
2022/09/15 09:26:14;;;;;;;2.20;1.13;;;17.80;99.90;;;;;;4991940;28;20548;-66
2022/09/15 09:28:48;;;;;;;5.47;1.77;;;17.60;99.90;;;;;;4992492;28;20408;-66
2022/09/15 09:31:20;;;;;;;2.50;1.30;;;17.10;99.90;;;;;;4992424;28;20401;-66
2022/09/15 09:34:02;;;;;;;5.90;1.40;;;17.20;99.90;;;;;;4992322;28;20415;-65
2022/09/15 09:36:28;;;;;;;5.10;2.07;;;17.50;99.90;;;;;;4995812;28;20427;-67
2022/09/15 09:38:55;;;;;;;3.63;1.50;;;17.50;99.90;;;;;;4996466;28;20453;-69
2022/09/15 09:41:34;;;;;;;2.33;1.70;;;17.90;99.90;;;;;;4996441;28;20258;-67
2022/09/15 09:44:02;;;;;;;2.73;1.57;;;18.10;99.90;;;;;;5015611;28;20409;-67
2022/09/15 09:46:28;;;;;;;3.73;1.57;;;17.90;99.90;;;;;;5015134;28;20488;-67
2022/09/15 09:49:09;;;;;;;1.87;1.10;;;18.00;99.90;;;;;;5001387;28;20428;-67
2022/09/15 09:51:50;;;;;;;5.27;1.67;;;18.50;99.90;;;;;;4995650;28;20410;-66
2022/09/15 09:54:19;;;;;;;2.27;1.60;;;18.70;99.90;;;;;;4995692;28;20421;-67
2022/09/15 09:56:48;;;;;;;1.40;1.07;;;18.60;99.90;;;;;;4995398;28;20428;-66
2022/09/15 09:59:31;;;;;;;2.83;1.67;;;18.30;99.90;;;;;;4995600;28;21054;-66
2022/09/15 10:02:11;;;;;;;1.77;1.40;;;19.00;99.90;;;;;;4995637;28;20408;-70
2022/09/15 10:04:42;;;;;;;4.10;1.27;;;18.50;99.90;;;;;;4995358;28;20415;-66
2022/09/15 10:07:08;;;;;;;1.77;1.00;;;18.40;99.90;;;;;;4995015;28;21027;-66
2022/09/15 10:09:35;;;;;;;4.13;0.90;;;17.90;99.90;;;;;;4995091;28;20406;-66
2022/09/15 10:12:04;;;;;;;1.53;1.07;;;18.80;99.90;;;;;;4991507;28;20570;-66
2022/09/15 10:14:39;;;;;;;4.83;1.90;;;19.20;99.90;;;;;;4982084;28;20413;-67
2022/09/15 10:17:15;;;;;;;2.33;1.30;;;19.10;99.90;;;;;;4995107;28;20799;-66
2022/09/15 10:19:55;;;;;;;3.77;1.23;;;19.40;99.90;;;;;;4977093;28;20422;-66
2022/09/15 10:22:36;;;;;;;1.90;1.10;;;19.40;99.90;;;;;;4995344;28;20384;-66
2022/09/15 10:25:25;;;;;;;4.40;1.40;;;19.50;99.90;;;;;;4994879;28;20826;-66
2022/09/15 10:28:20;;;;;;;1.30;1.20;;;19.10;99.90;;;;;;4995231;28;20432;-66
2022/09/15 10:31:00;;;;;;;2.20;1.30;;;18.40;99.90;;;;;;4994492;28;20861;-66
2022/09/15 10:33:36;;;;;;;2.70;1.13;;;18.80;99.90;;;;;;4994808;28;20428;-66
2022/09/15 10:36:17;;;;;;;1.97;1.60;;;18.50;99.90;;;;;;4994622;28;20421;-67
2022/09/15 10:39:03;;;;;;;2.33;1.10;;;19.40;99.90;;;;;;4994888;28;20407;-67
2022/09/15 10:41:30;;;;;;;3.23;1.67;;;19.90;99.90;;;;;;4995055;28;20443;-66
2022/09/15 10:44:17;;;;;;;5.03;3.27;;;19.90;99.90;;;;;;4994630;28;20498;-66
2022/09/15 10:47:02;;;;;;;3.73;1.50;;;20.10;99.90;;;;;;4994440;28;20870;-66
2022/09/15 10:49:51;;;;;;;3.90;2.30;;;19.90;99.90;;;;;;4994596;28;20416;-65
2022/09/15 10:52:33;;;;;;;3.27;1.60;;;19.40;99.90;;;;;;4994331;28;20406;-66
2022/09/15 10:55:14;;;;;;;2.43;1.30;;;18.90;99.90;;;;;;4986633;28;20496;-66
2022/09/15 10:58:02;;;;;;;1.40;1.27;;;18.80;99.90;;;;;;4994321;28;20784;-66
2022/09/15 11:00:50;;;;;;;5.70;2.27;;;18.60;99.90;;;;;;4994638;28;20407;-65
2022/09/15 11:03:37;;;;;;;2.63;1.33;;;18.40;99.90;;;;;;4994379;28;20450;-66
2022/09/15 11:06:08;;;;;;;2.40;1.67;;;18.60;99.90;;;;;;4993843;28;20464;-66
2022/09/15 11:08:52;;;;;;;5.03;2.03;;;18.50;99.90;;;;;;4994216;28;20429;-66
2022/09/15 11:11:38;;;;;;;2.20;1.77;;;18.30;99.90;;;;;;4994667;28;20408;-66
2022/09/15 11:14:25;;;;;;;5.17;1.87;;;18.90;99.90;;;;;;4994193;28;21015;-66
2022/09/15 11:17:09;;;;;;;2.40;1.50;;;19.00;99.90;;;;;;4994211;28;20428;-66
2022/09/15 11:19:48;;;;;;;2.37;1.37;;;19.00;99.90;;;;;;4994228;28;20436;-68
2022/09/15 11:22:22;;;;;;;6.53;4.43;;;18.50;99.90;;;;;;4994276;28;20417;-66
2022/09/15 11:24:57;;;;;;;1.43;1.10;;;18.50;99.90;;;;;;4993685;28;20412;-66
2022/09/15 11:27:28;;;;;;;1.63;1.37;;;18.60;99.90;;;;;;4994217;28;20827;-66
2022/09/15 11:30:01;;;;;;;3.70;1.13;;;19.10;99.90;;;;;;4994151;28;20505;-66
2022/09/15 11:32:33;;;;;;;4.77;2.50;;;19.00;99.90;;;;;;4996204;28;20472;-66
2022/09/15 11:35:17;;;;;;;3.00;1.30;;;19.30;99.90;;;;;;4979315;28;20421;-66
2022/09/15 11:37:47;;;;;;;3.27;1.20;;;19.10;99.90;;;;;;5013392;28;20436;-66
2022/09/15 11:40:36;;;;;;;3.80;1.10;;;18.70;99.90;;;;;;5002805;28;20775;-65
2022/09/15 11:43:28;;;;;;;3.07;1.33;;;18.70;99.90;;;;;;4993219;28;20485;-66
2022/09/15 11:45:56;;;;;;;1.37;1.27;;;18.70;99.90;;;;;;4991061;28;20481;-66
2022/09/15 11:48:34;;;;;;;1.03;0.93;;;18.80;99.90;;;;;;4993475;28;20412;-66
2022/09/15 11:51:02;;;;;;;1.80;0.97;;;18.40;99.90;;;;;;4993563;28;20485;-66
2022/09/15 11:53:45;;;;;;;1.30;1.00;;;18.40;99.90;;;;;;4993323;28;20516;-67
2022/09/15 11:56:29;;;;;;;6.20;1.43;;;18.20;99.90;;;;;;4993531;28;20468;-66
2022/09/15 11:59:11;;;;;;;3.00;1.50;;;18.30;99.90;;;;;;4993308;28;20915;-66
2022/09/15 12:02:04;;;;;;;2.83;1.27;;;18.60;99.90;;;;;;4993704;28;20436;-66
2022/09/15 12:04:37;;;;;;;3.20;1.23;;;18.20;99.90;;;;;;4993711;28;20414;-66
2022/09/15 12:07:17;;;;;;;2.80;1.43;;;18.00;99.90;;;;;;5012942;28;20451;-67
2022/09/15 12:09:43;;;;;;;4.20;2.37;;;18.20;99.90;;;;;;4990949;28;20414;-67
2022/09/15 12:12:16;;;;;;;2.13;1.47;;;18.50;99.90;;;;;;4993656;28;20409;-67
2022/09/15 12:14:45;;;;;;;1.83;1.20;;;18.20;99.90;;;;;;4992740;28;20442;-68
2022/09/15 12:17:20;;;;;;;2.70;0.90;;;18.20;99.90;;;;;;4993490;28;20444;-66
2022/09/15 12:20:01;;;;;;;3.33;2.10;;;18.40;99.90;;;;;;4993313;28;20906;-66
2022/09/15 12:22:32;;;;;;;7.70;2.27;;;18.50;99.90;;;;;;4993420;28;20413;-66
2022/09/15 12:25:01;;;;;;;2.50;1.60;;;18.30;99.90;;;;;;4973630;28;20481;-67
2022/09/15 12:27:28;;;;;;;9.30;5.07;;;18.30;99.90;;;;;;4973627;28;20517;-65
2022/09/15 12:29:57;;;;;;;1.90;1.40;;;18.30;99.90;;;;;;4990311;28;20911;-67
2022/09/15 12:32:33;;;;;;;7.23;5.73;;;18.30;99.90;;;;;;4993404;28;20435;-67
2022/09/15 12:35:14;;;;;;;5.20;2.10;;;18.60;99.90;;;;;;4973745;28;20436;-68
2022/09/15 12:37:53;;;;;;;5.10;1.00;;;18.60;99.90;;;;;;4974201;28;20438;-68
2022/09/15 12:40:36;;;;;;;3.20;1.17;;;18.80;99.90;;;;;;4987273;28;20411;-67
2022/09/15 12:43:12;;;;;;;3.03;1.50;;;18.70;99.90;;;;;;4993068;28;20404;-66
2022/09/15 12:45:39;;;;;;;2.90;1.07;;;18.90;99.90;;;;;;4992855;28;20969;-66
2022/09/15 12:48:11;;;;;;;6.57;1.30;;;18.80;99.90;;;;;;4992964;28;20413;-66
2022/09/15 12:50:40;;;;;;;1.40;0.90;;;18.80;99.90;;;;;;4992747;28;20950;-66
2022/09/15 12:53:27;;;;;;;2.83;1.10;;;18.70;99.90;;;;;;4992599;28;20890;-67
2022/09/15 12:56:06;;;;;;;1.67;1.00;;;18.40;99.90;;;;;;4992241;28;20451;-67
2022/09/15 12:58:44;;;;;;;1.33;1.00;;;18.40;99.90;;;;;;4992388;28;20426;-65
2022/09/15 13:01:22;;;;;;;2.73;1.10;;;18.30;99.90;;;;;;4992157;28;20422;-66
2022/09/15 13:03:52;;;;;;;9.53;1.47;;;18.00;99.90;;;;;;4992483;28;20437;-67
2022/09/15 13:06:33;;;;;;;3.00;1.30;;;18.00;99.90;;;;;;5001068;28;20549;-66
2022/09/15 13:09:04;;;;;;;4.83;1.30;;;18.10;99.90;;;;;;4998930;28;20419;-66